Time;durP1;ratioP1;P1;durP2;ratioP2;P2;SDS_P1;SDS_P2;PMS_P1;PMS_P2;Temp;Humidity;BMP_temperature;BMP_pressure;BME280_temperature;BME280_humidity;BME280_pressure;Samples;Min_cycle;Max_cycle;Signal;HPM_P1;HPM_P2
2023/01/18 00:05:42;;;;;;;7.00;4.28;;;7.50;88.70;;;;;;10792479;33;20016;-73
2023/01/18 00:11:43;;;;;;;7.12;4.15;;;7.40;88.80;;;;;;10788438;33;20028;-73
2023/01/18 00:17:50;;;;;;;8.68;5.35;;;7.30;88.70;;;;;;10792099;33;20031;-76
2023/01/18 00:23:54;;;;;;;9.93;6.43;;;7.40;88.70;;;;;;10322417;32;16899788;-76
2023/01/18 00:29:58;;;;;;;8.93;6.30;;;7.40;88.90;;;;;;10868828;32;20027;-77
2023/01/18 00:36:01;;;;;;;7.00;4.85;;;7.70;88.90;;;;;;10868556;32;20039;-77
2023/01/18 00:48:44;;;;;;;11.93;7.93;;;7.60;89.00;;;;;;10903289;32;20031;-76
2023/01/18 00:54:46;;;;;;;11.75;8.02;;;7.90;89.00;;;;;;10825300;32;20026;-77
2023/01/18 01:00:51;;;;;;;9.23;6.28;;;8.00;88.60;;;;;;10741859;32;20029;-76
2023/01/18 01:06:55;;;;;;;7.32;5.32;;;8.00;88.50;;;;;;10675358;33;20025;-76
2023/01/18 01:31:58;;;;;;;6.15;4.25;;;7.60;88.80;;;;;;10776325;33;20036;-75
2023/01/18 01:38:00;;;;;;;4.35;2.87;;;7.50;88.80;;;;;;10789960;33;20433;-76
2023/01/18 01:44:23;;;;;;;7.45;4.97;;;7.30;88.80;;;;;;10789587;33;20017;-76
2023/01/18 01:50:33;;;;;;;8.35;6.85;;;7.30;88.90;;;;;;10789620;33;20043;-76
2023/01/18 01:56:36;;;;;;;7.28;5.28;;;7.50;89.10;;;;;;10777104;32;20054;-76
2023/01/18 02:02:39;;;;;;;6.10;4.28;;;7.60;88.70;;;;;;10775656;33;20054;-76
2023/01/18 02:08:46;;;;;;;7.47;4.57;;;7.30;88.70;;;;;;10788969;33;20434;-76
2023/01/18 02:14:48;;;;;;;7.25;4.18;;;7.20;88.80;;;;;;10788789;33;20437;-76
2023/01/18 02:21:16;;;;;;;7.12;4.45;;;7.20;88.90;;;;;;10787726;33;20032;-76
2023/01/18 02:27:28;;;;;;;9.07;5.65;;;7.20;88.90;;;;;;10776124;32;20390;-76
2023/01/18 02:33:39;;;;;;;6.97;4.82;;;7.20;89.00;;;;;;10790047;33;20025;-76
2023/01/18 02:39:58;;;;;;;6.95;4.80;;;7.20;88.80;;;;;;10785283;33;20017;-76
2023/01/18 02:52:48;;;;;;;8.23;5.07;;;7.30;88.50;;;;;;10788210;33;20024;-76
2023/01/18 02:59:08;;;;;;;7.20;4.65;;;7.20;88.60;;;;;;10787752;33;20393;-75
2023/01/18 03:05:11;;;;;;;9.25;6.60;;;7.20;88.50;;;;;;10787658;33;20046;-76
2023/01/18 03:11:32;;;;;;;7.00;4.95;;;7.20;88.50;;;;;;10774382;33;20386;-76
2023/01/18 03:17:42;;;;;;;9.35;6.45;;;7.30;88.30;;;;;;10786956;33;20055;-76
2023/01/18 03:23:44;;;;;;;10.13;7.47;;;7.30;88.40;;;;;;10787149;33;20058;-76
2023/01/18 03:36:12;;;;;;;9.13;5.97;;;7.20;88.40;;;;;;10782703;33;20499;-76
2023/01/18 03:42:20;;;;;;;7.97;4.68;;;6.80;87.90;;;;;;10784480;33;20418;-75
2023/01/18 03:48:23;;;;;;;;;;;6.60;88.50;;;;;;10773938;33;20016;-75
2023/01/18 03:54:36;;;;;;;6.20;4.37;;;6.70;88.50;;;;;;10790245;33;19966;-76
2023/01/18 04:00:38;;;;;;;9.45;4.70;;;6.70;88.60;;;;;;10792750;33;20350;-76
2023/01/18 04:06:41;;;;;;;10.70;6.68;;;6.70;88.80;;;;;;10779042;33;20395;-75
2023/01/18 04:12:43;;;;;;;9.00;6.12;;;7.00;88.60;;;;;;10792332;33;20048;-76
2023/01/18 04:18:45;;;;;;;14.80;8.73;;;7.40;88.30;;;;;;10792107;33;20046;-75
2023/01/18 04:24:47;;;;;;;11.68;8.35;;;7.60;87.80;;;;;;10791930;33;20052;-75
2023/01/18 04:30:53;;;;;;;8.25;5.20;;;7.70;87.70;;;;;;10791703;33;20016;-76
2023/01/18 04:36:55;;;;;;;10.20;7.18;;;7.70;87.40;;;;;;10791557;33;20024;-76
2023/01/18 04:42:57;;;;;;;10.73;7.12;;;7.70;87.70;;;;;;10778437;33;20047;-75
2023/01/18 04:48:59;;;;;;;15.63;11.05;;;7.90;87.50;;;;;;10791288;33;20016;-76
2023/01/18 04:55:01;;;;;;;10.35;6.87;;;8.20;87.40;;;;;;10789045;33;20021;-76
2023/01/18 05:01:07;;;;;;;14.95;9.10;;;8.40;87.30;;;;;;10790933;33;20439;-75
2023/01/18 05:07:18;;;;;;;11.43;7.57;;;8.40;87.00;;;;;;10790004;33;20016;-75
2023/01/18 05:13:20;;;;;;;13.75;10.23;;;8.50;86.80;;;;;;10790554;33;20062;-75
2023/01/18 05:19:23;;;;;;;10.93;7.10;;;8.40;86.60;;;;;;10791189;33;20016;-75
2023/01/18 05:25:25;;;;;;;14.80;9.75;;;8.40;86.50;;;;;;10790202;33;20046;-75
2023/01/18 05:31:26;;;;;;;9.35;6.65;;;8.50;86.30;;;;;;10790023;33;20028;-75
2023/01/18 05:37:28;;;;;;;13.85;8.70;;;8.40;85.90;;;;;;10788968;33;20027;-75
2023/01/18 05:43:31;;;;;;;9.73;7.03;;;8.00;86.40;;;;;;10789777;33;20020;-75
2023/01/18 05:49:32;;;;;;;13.05;9.00;;;8.10;86.50;;;;;;10789510;33;20036;-75
2023/01/18 05:55:34;;;;;;;7.97;5.05;;;8.30;86.40;;;;;;10789293;33;20039;-75
2023/01/18 06:01:36;;;;;;;13.62;10.32;;;8.20;85.80;;;;;;10789202;33;20035;-75
2023/01/18 06:07:38;;;;;;;14.95;10.15;;;7.90;86.50;;;;;;10789045;33;20043;-75
2023/01/18 06:13:41;;;;;;;7.72;5.70;;;7.90;86.40;;;;;;10788807;33;20050;-75
2023/01/18 06:19:45;;;;;;;11.38;7.37;;;8.20;86.30;;;;;;10788540;33;20383;-76
2023/01/18 06:25:47;;;;;;;13.80;10.45;;;8.30;86.30;;;;;;10788538;33;20056;-75
2023/01/18 06:31:49;;;;;;;8.18;6.35;;;8.40;86.00;;;;;;10788275;33;20012;-75
2023/01/18 06:37:51;;;;;;;21.87;14.05;;;8.30;85.90;;;;;;10787786;33;20059;-73
2023/01/18 06:43:53;;;;;;;14.73;8.27;;;8.00;86.40;;;;;;10786972;33;20039;-73
2023/01/18 06:49:55;;;;;;;11.68;7.75;;;8.40;86.10;;;;;;10774655;33;20062;-73
2023/01/18 06:56:00;;;;;;;17.95;12.50;;;8.20;86.00;;;;;;10774143;33;20484;-73
2023/01/18 07:02:03;;;;;;;14.20;9.40;;;8.00;86.30;;;;;;10787777;33;20016;-73
2023/01/18 07:08:05;;;;;;;19.23;15.05;;;8.40;86.40;;;;;;10783288;33;20039;-73
2023/01/18 07:14:10;;;;;;;15.68;11.05;;;8.50;85.80;;;;;;10787166;33;20078;-73
2023/01/18 07:20:14;;;;;;;11.35;7.37;;;8.70;86.00;;;;;;10782284;33;20028;-72
2023/01/18 07:26:16;;;;;;;15.55;11.63;;;8.50;85.40;;;;;;10787054;33;20044;-73
2023/01/18 07:32:18;;;;;;;11.60;8.98;;;8.30;86.20;;;;;;10792061;33;20078;-73
2023/01/18 07:38:21;;;;;;;16.58;11.50;;;8.50;86.00;;;;;;10793194;33;20038;-73
2023/01/18 07:44:23;;;;;;;12.57;9.55;;;9.00;85.90;;;;;;10793168;33;20017;-73
2023/01/18 07:50:27;;;;;;;16.48;12.93;;;9.30;85.50;;;;;;10793024;33;20021;-73
2023/01/18 07:56:50;;;;;;;18.33;13.98;;;9.00;85.50;;;;;;10791460;33;20054;-73
2023/01/18 08:02:53;;;;;;;16.50;12.50;;;9.10;85.50;;;;;;10790681;33;20028;-73
2023/01/18 08:08:55;;;;;;;15.63;11.35;;;9.20;85.20;;;;;;10779018;32;20028;-72
2023/01/18 08:14:57;;;;;;;12.98;9.43;;;9.20;85.20;;;;;;10792096;33;20052;-73
2023/01/18 08:21:00;;;;;;;11.60;7.28;;;9.50;85.20;;;;;;10806855;27;20288;-73
2023/01/18 08:27:02;;;;;;;10.32;7.18;;;9.20;85.00;;;;;;10909066;32;20024;-73
2023/01/18 08:33:06;;;;;;;13.88;9.15;;;8.70;85.60;;;;;;10908988;32;20019;-73
2023/01/18 08:39:12;;;;;;;17.35;12.48;;;8.20;86.20;;;;;;10894383;32;20436;-73
2023/01/18 08:45:15;;;;;;;12.57;9.02;;;7.90;86.70;;;;;;10895440;32;20015;-73
2023/01/18 08:51:18;;;;;;;14.80;10.73;;;8.10;87.00;;;;;;10908359;32;20011;-73
2023/01/18 08:57:20;;;;;;;17.00;10.35;;;8.40;86.80;;;;;;10908067;32;20027;-73
2023/01/18 09:03:23;;;;;;;21.23;14.30;;;8.40;86.50;;;;;;10903958;32;20050;-73
2023/01/18 09:09:25;;;;;;;16.30;10.13;;;8.40;86.70;;;;;;10907826;32;20424;-76
2023/01/18 09:15:28;;;;;;;17.45;12.30;;;8.60;86.70;;;;;;10907401;32;20027;-76
2023/01/18 09:21:31;;;;;;;16.17;11.85;;;8.70;86.60;;;;;;10907093;32;20057;-76
2023/01/18 09:27:33;;;;;;;15.15;9.38;;;8.40;86.50;;;;;;10906995;32;20045;-76
2023/01/18 09:33:36;;;;;;;12.98;9.75;;;8.40;87.10;;;;;;10890051;32;20393;-76
2023/01/18 09:39:38;;;;;;;12.57;8.85;;;8.20;86.70;;;;;;10905773;32;20023;-75
2023/01/18 09:45:43;;;;;;;12.85;9.90;;;8.00;87.20;;;;;;10906308;32;20054;-75
2023/01/18 09:52:18;;;;;;;24.15;15.60;;;8.20;87.60;;;;;;10905850;32;20046;-75
2023/01/18 09:58:32;;;;;;;15.05;10.65;;;8.40;87.60;;;;;;10903734;32;20058;-76
2023/01/18 10:04:39;;;;;;;18.83;11.68;;;8.50;87.20;;;;;;10902485;32;20069;-75
2023/01/18 10:11:07;;;;;;;14.60;9.60;;;8.60;87.20;;;;;;10892165;32;20329;-76
2023/01/18 10:17:19;;;;;;;15.45;9.25;;;8.70;87.30;;;;;;10905258;32;20081;-75
2023/01/18 10:23:37;;;;;;;16.35;10.13;;;8.80;87.00;;;;;;10905129;32;20027;-75
2023/01/18 10:30:00;;;;;;;19.45;13.00;;;8.50;87.30;;;;;;10904938;32;20046;-75
2023/01/18 10:36:31;;;;;;;18.75;12.90;;;8.40;87.20;;;;;;10903669;32;20049;-76
2023/01/18 10:42:41;;;;;;;19.02;13.00;;;8.50;87.80;;;;;;10811079;32;20020;-76
2023/01/18 10:48:50;;;;;;;22.85;15.40;;;8.80;87.60;;;;;;10825955;32;20054;-76
2023/01/18 10:55:06;;;;;;;19.62;15.48;;;9.10;87.40;;;;;;10821572;32;20023;-76
2023/01/18 11:01:21;;;;;;;21.70;13.50;;;9.20;87.50;;;;;;10813285;32;20024;-75
2023/01/18 11:07:25;;;;;;;13.95;9.82;;;9.20;87.70;;;;;;10826530;33;20445;-76
2023/01/18 11:13:42;;;;;;;21.08;15.15;;;9.20;87.40;;;;;;10813652;33;20036;-76
2023/01/18 11:19:46;;;;;;;18.77;12.80;;;9.20;87.70;;;;;;10891944;32;20046;-76
2023/01/18 11:25:59;;;;;;;17.27;11.30;;;9.20;88.40;;;;;;10903405;32;20077;-76
2023/01/18 11:32:05;;;;;;;17.20;10.75;;;9.30;88.40;;;;;;10903521;32;20042;-76
2023/01/18 11:38:17;;;;;;;13.65;8.82;;;9.50;88.00;;;;;;10890206;32;20410;-76
2023/01/18 11:44:25;;;;;;;12.75;8.70;;;9.70;87.80;;;;;;10862714;32;20023;-76
2023/01/18 11:50:33;;;;;;;16.00;11.93;;;9.60;87.80;;;;;;10872225;32;20050;-74
2023/01/18 11:56:41;;;;;;;13.10;8.82;;;9.60;88.30;;;;;;10890825;32;20015;-74
2023/01/18 12:03:17;;;;;;;19.98;13.07;;;9.60;88.50;;;;;;10902862;32;20046;-74
2023/01/18 12:09:53;;;;;;;16.83;11.25;;;9.60;88.60;;;;;;10889588;32;20011;-74
2023/01/18 12:16:00;;;;;;;14.98;9.65;;;9.70;88.10;;;;;;10906260;32;20427;-74
2023/01/18 12:22:35;;;;;;;20.00;13.05;;;9.50;87.90;;;;;;10893351;32;20333;-73
2023/01/18 12:28:47;;;;;;;17.30;11.20;;;9.50;88.10;;;;;;10909377;32;20050;-73
2023/01/18 12:34:52;;;;;;;21.30;14.20;;;9.50;88.20;;;;;;10895640;32;20081;-73
2023/01/18 12:41:17;;;;;;;19.48;13.62;;;9.70;88.40;;;;;;10908185;32;20046;-73
2023/01/18 12:47:33;;;;;;;18.62;12.90;;;9.80;88.70;;;;;;10908621;32;20069;-73
2023/01/18 12:53:49;;;;;;;18.05;11.32;;;9.70;88.60;;;;;;10905957;32;20028;-73
2023/01/18 12:59:57;;;;;;;24.75;16.90;;;9.70;88.50;;;;;;10907789;32;20019;-73
2023/01/18 13:06:02;;;;;;;18.60;12.37;;;9.70;88.70;;;;;;10908910;32;20011;-73
2023/01/18 13:12:05;;;;;;;22.27;17.90;;;9.50;88.60;;;;;;10907283;32;20015;-73
2023/01/18 13:18:31;;;;;;;21.92;15.00;;;9.50;88.90;;;;;;10904649;32;20053;-73
2023/01/18 13:24:43;;;;;;;14.82;10.70;;;9.60;88.70;;;;;;10906042;32;20016;-73
2023/01/18 13:31:03;;;;;;;22.08;12.35;;;9.60;88.60;;;;;;10905891;32;20038;-73
2023/01/18 13:37:05;;;;;;;18.60;13.13;;;9.20;88.70;;;;;;10906632;32;20045;-73
2023/01/18 13:43:29;;;;;;;21.27;15.25;;;9.20;88.70;;;;;;10894297;32;20019;-73
2023/01/18 13:49:36;;;;;;;20.00;14.52;;;9.50;88.70;;;;;;10906340;32;20330;-75
2023/01/18 13:55:46;;;;;;;17.87;11.68;;;9.70;88.60;;;;;;10889024;32;20061;-76
2023/01/18 14:01:49;;;;;;;24.87;17.12;;;10.00;88.70;;;;;;10904090;32;20408;-76
2023/01/18 14:07:56;;;;;;;18.05;11.88;;;10.10;88.10;;;;;;10905822;32;20011;-73
2023/01/18 14:13:59;;;;;;;27.10;17.55;;;10.20;88.30;;;;;;10892179;32;20393;-73
2023/01/18 14:20:24;;;;;;;20.92;13.80;;;10.00;88.10;;;;;;10905305;32;20323;-73
2023/01/18 14:26:36;;;;;;;22.52;15.85;;;10.20;88.10;;;;;;10903421;32;20015;-73
2023/01/18 14:32:55;;;;;;;16.58;11.63;;;10.40;88.00;;;;;;10904844;32;20047;-73
2023/01/18 14:39:16;;;;;;;23.33;16.73;;;10.50;87.80;;;;;;10904446;32;20042;-72
2023/01/18 14:45:26;;;;;;;16.70;11.30;;;10.60;88.20;;;;;;10904412;32;20066;-73
2023/01/18 14:51:28;;;;;;;18.42;12.32;;;10.30;87.60;;;;;;10891003;32;20038;-73
2023/01/18 14:57:30;;;;;;;20.50;15.73;;;9.90;88.10;;;;;;10900222;32;20042;-73
2023/01/18 15:03:35;;;;;;;20.67;15.00;;;10.10;88.60;;;;;;10890693;32;20058;-73
2023/01/18 15:09:39;;;;;;;25.08;18.25;;;10.00;88.10;;;;;;10903769;32;20011;-73
2023/01/18 15:15:42;;;;;;;20.45;13.60;;;9.60;88.60;;;;;;10896354;32;20132;-73
2023/01/18 15:21:45;;;;;;;23.87;17.80;;;9.60;89.30;;;;;;10898302;32;20076;-74
2023/01/18 15:27:52;;;;;;;15.05;10.35;;;9.80;89.30;;;;;;10895545;32;20050;-74
2023/01/18 15:33:56;;;;;;;19.98;14.20;;;9.80;89.00;;;;;;10853052;32;20038;-73
2023/01/18 15:40:14;;;;;;;24.08;15.85;;;9.70;88.70;;;;;;10866197;32;20038;-74
2023/01/18 15:46:17;;;;;;;20.42;12.68;;;9.70;88.70;;;;;;10852304;32;20341;-73
2023/01/18 15:52:37;;;;;;;21.58;14.87;;;9.70;88.60;;;;;;10871472;32;20051;-74
2023/01/18 15:58:54;;;;;;;17.77;11.82;;;9.80;88.40;;;;;;10859334;32;20039;-73
2023/01/18 16:05:27;;;;;;;25.77;17.42;;;9.70;88.10;;;;;;10859761;32;20307;-73
2023/01/18 16:11:32;;;;;;;21.27;13.82;;;9.70;88.00;;;;;;10872615;32;20043;-73
2023/01/18 16:17:34;;;;;;;25.08;17.35;;;9.70;88.10;;;;;;10872028;32;20429;-74
2023/01/18 16:23:37;;;;;;;28.02;21.75;;;9.70;88.20;;;;;;10814752;27;20032;-73
2023/01/18 16:29:47;;;;;;;21.98;15.75;;;9.70;88.20;;;;;;10755482;33;20025;-76
2023/01/18 16:35:50;;;;;;;19.95;14.60;;;9.60;87.90;;;;;;10755551;33;20068;-76
2023/01/18 16:41:57;;;;;;;19.55;12.85;;;9.70;88.30;;;;;;10755373;33;20040;-76
2023/01/18 16:47:59;;;;;;;19.10;14.27;;;9.70;88.50;;;;;;10753820;33;20425;-76
2023/01/18 16:54:01;;;;;;;21.73;15.43;;;9.50;88.20;;;;;;10754944;33;20039;-76
2023/01/18 17:00:22;;;;;;;23.98;17.17;;;9.50;88.40;;;;;;10736918;33;20052;-76
2023/01/18 17:06:25;;;;;;;25.92;18.40;;;9.60;88.40;;;;;;10914310;32;20027;-76
2023/01/18 17:12:27;;;;;;;20.65;15.63;;;9.60;88.30;;;;;;10945335;32;20433;-76
2023/01/18 17:18:29;;;;;;;17.25;14.30;;;9.60;88.30;;;;;;10945068;32;20019;-73
2023/01/18 17:24:31;;;;;;;17.58;13.30;;;9.50;88.10;;;;;;10944950;32;20432;-73
2023/01/18 17:30:33;;;;;;;27.45;19.65;;;9.40;87.90;;;;;;10941846;32;20014;-74
2023/01/18 17:36:35;;;;;;;22.35;15.40;;;9.30;87.90;;;;;;10940941;32;20069;-74
2023/01/18 17:42:37;;;;;;;25.45;17.95;;;9.30;87.80;;;;;;10930517;32;20340;-73
2023/01/18 17:48:39;;;;;;;38.00;20.48;;;9.30;87.60;;;;;;10943793;32;20012;-73
2023/01/18 17:54:41;;;;;;;36.03;20.48;;;9.20;87.60;;;;;;10943686;32;20023;-73
2023/01/18 18:00:43;;;;;;;28.58;18.83;;;9.10;87.70;;;;;;10929770;32;20053;-73
2023/01/18 18:06:46;;;;;;;35.83;25.08;;;9.30;87.50;;;;;;10929527;32;20034;-73
2023/01/18 18:12:50;;;;;;;24.58;17.75;;;9.30;86.90;;;;;;10928978;32;20401;-73
2023/01/18 18:18:55;;;;;;;25.55;18.30;;;9.50;86.80;;;;;;10942663;32;20073;-75
2023/01/18 18:24:57;;;;;;;24.45;18.05;;;9.40;86.80;;;;;;10942222;32;20049;-75
2023/01/18 18:31:00;;;;;;;21.80;14.13;;;9.40;86.70;;;;;;10925521;32;20042;-75
2023/01/18 18:37:04;;;;;;;19.40;14.23;;;9.30;86.50;;;;;;10942225;32;20058;-75
2023/01/18 18:43:07;;;;;;;27.90;20.55;;;9.10;86.60;;;;;;10942243;32;20038;-75
2023/01/18 18:49:25;;;;;;;21.33;16.20;;;9.20;86.90;;;;;;10941905;32;20389;-76
2023/01/18 18:55:31;;;;;;;17.90;12.57;;;9.30;86.40;;;;;;10941783;32;20026;-75
2023/01/18 19:01:33;;;;;;;19.35;15.73;;;9.10;86.30;;;;;;10941349;32;20019;-75
2023/01/18 19:07:35;;;;;;;17.90;13.48;;;8.90;86.50;;;;;;10941381;32;20333;-75
2023/01/18 19:13:37;;;;;;;21.10;15.23;;;9.00;86.60;;;;;;10927563;32;20031;-75
2023/01/18 19:19:39;;;;;;;21.37;15.10;;;9.00;86.40;;;;;;10941195;32;20194;-76
2023/01/18 19:25:41;;;;;;;28.20;22.87;;;8.90;86.30;;;;;;10945287;32;20026;-75
2023/01/18 19:31:43;;;;;;;36.95;23.08;;;8.70;86.80;;;;;;10948797;32;20428;-75
2023/01/18 19:37:46;;;;;;;29.65;21.15;;;8.80;86.50;;;;;;10935075;32;20031;-75
2023/01/18 19:43:58;;;;;;;22.25;17.00;;;9.10;86.30;;;;;;10948487;32;20019;-75
2023/01/18 19:50:02;;;;;;;24.95;20.42;;;9.10;85.70;;;;;;10948071;32;20307;-75
2023/01/18 19:56:04;;;;;;;17.80;14.02;;;8.70;85.70;;;;;;10947786;32;20019;-73
2023/01/18 20:02:06;;;;;;;24.33;18.37;;;8.70;86.00;;;;;;10946829;32;20027;-75
2023/01/18 20:08:09;;;;;;;26.77;20.25;;;8.70;85.80;;;;;;10948099;32;20026;-75
2023/01/18 20:14:11;;;;;;;31.33;23.15;;;8.70;85.60;;;;;;10933918;32;20019;-75
2023/01/18 20:20:13;;;;;;;27.02;19.30;;;8.70;85.60;;;;;;10946987;32;20023;-75
2023/01/18 20:26:16;;;;;;;25.17;17.08;;;8.80;85.30;;;;;;10946699;32;20047;-75
2023/01/18 20:32:19;;;;;;;35.00;25.48;;;8.90;85.20;;;;;;10946690;32;20022;-75
2023/01/18 20:38:20;;;;;;;25.08;17.77;;;8.90;85.20;;;;;;10946195;32;20028;-75
2023/01/18 20:44:23;;;;;;;20.80;17.15;;;9.00;84.90;;;;;;10946206;32;20019;-75
2023/01/18 20:50:25;;;;;;;22.67;15.52;;;8.70;85.00;;;;;;10945926;32;20435;-75
2023/01/18 20:56:29;;;;;;;20.62;15.50;;;8.30;85.30;;;;;;10945686;32;20023;-73
2023/01/18 21:02:31;;;;;;;29.17;19.80;;;8.00;85.90;;;;;;10945385;32;20024;-73
2023/01/18 21:08:33;;;;;;;33.22;25.62;;;8.10;86.20;;;;;;10944586;32;20042;-73
2023/01/18 21:14:35;;;;;;;23.15;16.75;;;8.20;85.90;;;;;;10944761;32;20061;-73
2023/01/18 21:20:37;;;;;;;21.58;17.50;;;8.20;85.70;;;;;;10944459;32;20045;-73
2023/01/18 21:26:39;;;;;;;24.80;18.27;;;8.00;86.00;;;;;;10944723;32;20026;-72
2023/01/18 21:32:42;;;;;;;22.05;15.70;;;7.90;86.40;;;;;;10944450;32;20061;-73
2023/01/18 21:38:45;;;;;;;23.73;17.12;;;8.10;86.40;;;;;;10944409;32;20420;-73
2023/01/18 21:57:29;;;;;;;26.27;18.35;;;7.40;86.50;;;;;;10943858;32;20019;-73
2023/01/18 22:03:30;;;;;;;26.52;17.58;;;7.40;86.90;;;;;;10943333;32;20023;-73
2023/01/18 22:09:32;;;;;;;23.35;16.62;;;7.60;87.10;;;;;;10943349;32;20045;-73
2023/01/18 22:15:34;;;;;;;19.10;15.23;;;8.00;86.70;;;;;;10930833;32;20027;-73
2023/01/18 22:21:36;;;;;;;16.52;12.98;;;8.20;86.30;;;;;;10942885;32;20385;-73
2023/01/18 22:27:38;;;;;;;22.52;18.37;;;8.40;86.00;;;;;;10928901;32;20034;-73
2023/01/18 22:33:42;;;;;;;24.20;18.83;;;8.50;85.80;;;;;;10925353;32;20100;-73
2023/01/18 22:39:44;;;;;;;33.00;23.17;;;8.50;85.70;;;;;;10942311;32;20026;-73
2023/01/18 22:45:54;;;;;;;17.12;12.75;;;8.60;86.20;;;;;;10942085;32;20007;-73
2023/01/18 22:51:56;;;;;;;19.20;14.13;;;8.70;85.90;;;;;;10942072;32;20018;-73
2023/01/18 22:57:58;;;;;;;27.13;19.45;;;8.70;85.90;;;;;;10941926;32;20031;-73
2023/01/18 23:04:01;;;;;;;23.10;19.25;;;8.80;86.30;;;;;;10941881;32;20073;-73
2023/01/18 23:10:03;;;;;;;18.30;13.18;;;8.70;86.00;;;;;;10941759;32;20045;-75
2023/01/18 23:22:32;;;;;;;22.60;17.52;;;8.20;86.90;;;;;;10941484;32;20026;-73
2023/01/18 23:28:40;;;;;;;25.33;18.23;;;8.50;86.60;;;;;;10927905;32;20066;-73
2023/01/18 23:34:42;;;;;;;22.23;17.15;;;8.60;86.20;;;;;;10941372;32;20042;-73
2023/01/18 23:59:47;;;;;;;22.50;15.23;;;7.70;86.40;;;;;;10940885;32;20334;-75
